sensor_id;sensor_type;location;lat;lon;timestamp;P1;durP1;ratioP1;P2;durP2;ratioP2
23362;SDS011;11853;48.080;11.960;2023-04-24T00:00:15;2.92;;;1.30;;
23362;SDS011;11853;48.080;11.960;2023-04-24T00:02:43;3.10;;;1.50;;
23362;SDS011;11853;48.080;11.960;2023-04-24T00:05:12;1.30;;;1.20;;
23362;SDS011;11853;48.080;11.960;2023-04-24T00:07:39;2.05;;;1.30;;
23362;SDS011;11853;48.080;11.960;2023-04-24T00:10:06;1.67;;;1.10;;
23362;SDS011;11853;48.080;11.960;2023-04-24T00:12:32;1.48;;;1.08;;
23362;SDS011;11853;48.080;11.960;2023-04-24T00:14:59;1.13;;;1.02;;
23362;SDS011;11853;48.080;11.960;2023-04-24T00:17:25;1.20;;;1.10;;
23362;SDS011;11853;48.080;11.960;2023-04-24T00:19:51;1.52;;;1.10;;
23362;SDS011;11853;48.080;11.960;2023-04-24T00:22:23;0.85;;;0.80;;
23362;SDS011;11853;48.080;11.960;2023-04-24T00:24:49;1.20;;;1.00;;
23362;SDS011;11853;48.080;11.960;2023-04-24T00:27:15;0.85;;;0.82;;
23362;SDS011;11853;48.080;11.960;2023-04-24T00:29:41;2.35;;;0.90;;
23362;SDS011;11853;48.080;11.960;2023-04-24T00:32:06;1.05;;;1.00;;
23362;SDS011;11853;48.080;11.960;2023-04-24T00:34:32;0.82;;;0.77;;
23362;SDS011;11853;48.080;11.960;2023-04-24T00:36:58;1.05;;;0.98;;
23362;SDS011;11853;48.080;11.960;2023-04-24T00:39:23;1.10;;;1.00;;
23362;SDS011;11853;48.080;11.960;2023-04-24T00:41:49;0.50;;;0.50;;
23362;SDS011;11853;48.080;11.960;2023-04-24T00:44:16;0.70;;;0.70;;
23362;SDS011;11853;48.080;11.960;2023-04-24T00:46:42;0.73;;;0.73;;
23362;SDS011;11853;48.080;11.960;2023-04-24T00:49:08;0.90;;;0.63;;
23362;SDS011;11853;48.080;11.960;2023-04-24T00:51:34;1.10;;;0.73;;
23362;SDS011;11853;48.080;11.960;2023-04-24T00:54:00;1.10;;;1.00;;
23362;SDS011;11853;48.080;11.960;2023-04-24T00:56:26;1.08;;;0.93;;
23362;SDS011;11853;48.080;11.960;2023-04-24T00:58:52;0.85;;;0.85;;
23362;SDS011;11853;48.080;11.960;2023-04-24T01:01:19;0.70;;;0.63;;
23362;SDS011;11853;48.080;11.960;2023-04-24T01:03:46;0.70;;;0.70;;
23362;SDS011;11853;48.080;11.960;2023-04-24T01:06:12;0.80;;;0.80;;
23362;SDS011;11853;48.080;11.960;2023-04-24T01:08:39;1.02;;;0.90;;
23362;SDS011;11853;48.080;11.960;2023-04-24T01:11:05;0.98;;;0.75;;
23362;SDS011;11853;48.080;11.960;2023-04-24T01:13:32;1.65;;;0.82;;
23362;SDS011;11853;48.080;11.960;2023-04-24T01:15:59;0.60;;;0.60;;
23362;SDS011;11853;48.080;11.960;2023-04-24T01:18:25;1.35;;;0.65;;
23362;SDS011;11853;48.080;11.960;2023-04-24T01:20:53;0.60;;;0.60;;
23362;SDS011;11853;48.080;11.960;2023-04-24T01:23:22;0.65;;;0.65;;
23362;SDS011;11853;48.080;11.960;2023-04-24T01:25:48;1.50;;;0.60;;
23362;SDS011;11853;48.080;11.960;2023-04-24T01:28:14;0.47;;;0.47;;
23362;SDS011;11853;48.080;11.960;2023-04-24T01:30:41;0.77;;;0.75;;
23362;SDS011;11853;48.080;11.960;2023-04-24T01:33:06;0.75;;;0.50;;
23362;SDS011;11853;48.080;11.960;2023-04-24T01:35:32;0.40;;;0.40;;
23362;SDS011;11853;48.080;11.960;2023-04-24T01:37:58;2.42;;;0.70;;
23362;SDS011;11853;48.080;11.960;2023-04-24T01:40:23;0.50;;;0.50;;
23362;SDS011;11853;48.080;11.960;2023-04-24T01:42:49;1.08;;;0.52;;
23362;SDS011;11853;48.080;11.960;2023-04-24T01:45:15;0.82;;;0.45;;
23362;SDS011;11853;48.080;11.960;2023-04-24T01:47:41;1.40;;;0.47;;
23362;SDS011;11853;48.080;11.960;2023-04-24T01:50:07;0.50;;;0.50;;
23362;SDS011;11853;48.080;11.960;2023-04-24T01:52:33;1.38;;;0.60;;
23362;SDS011;11853;48.080;11.960;2023-04-24T01:55:00;1.70;;;0.32;;
23362;SDS011;11853;48.080;11.960;2023-04-24T01:57:26;0.40;;;0.40;;
23362;SDS011;11853;48.080;11.960;2023-04-24T01:59:51;0.80;;;0.60;;
23362;SDS011;11853;48.080;11.960;2023-04-24T02:02:17;0.65;;;0.50;;
23362;SDS011;11853;48.080;11.960;2023-04-24T02:04:43;0.57;;;0.50;;
23362;SDS011;11853;48.080;11.960;2023-04-24T02:07:08;0.55;;;0.30;;
23362;SDS011;11853;48.080;11.960;2023-04-24T02:09:34;0.55;;;0.38;;
23362;SDS011;11853;48.080;11.960;2023-04-24T02:11:59;0.40;;;0.40;;
23362;SDS011;11853;48.080;11.960;2023-04-24T02:14:25;0.40;;;0.40;;
23362;SDS011;11853;48.080;11.960;2023-04-24T02:16:51;0.40;;;0.40;;
23362;SDS011;11853;48.080;11.960;2023-04-24T02:19:17;0.57;;;0.50;;
23362;SDS011;11853;48.080;11.960;2023-04-24T02:21:42;1.80;;;0.50;;
23362;SDS011;11853;48.080;11.960;2023-04-24T02:24:08;0.70;;;0.60;;
23362;SDS011;11853;48.080;11.960;2023-04-24T02:26:33;0.57;;;0.55;;
23362;SDS011;11853;48.080;11.960;2023-04-24T02:28:59;1.02;;;0.50;;
23362;SDS011;11853;48.080;11.960;2023-04-24T02:31:24;0.47;;;0.47;;
23362;SDS011;11853;48.080;11.960;2023-04-24T02:33:50;0.40;;;0.40;;
23362;SDS011;11853;48.080;11.960;2023-04-24T02:36:15;1.85;;;0.50;;
23362;SDS011;11853;48.080;11.960;2023-04-24T02:38:41;0.68;;;0.60;;
23362;SDS011;11853;48.080;11.960;2023-04-24T02:41:06;0.35;;;0.35;;
23362;SDS011;11853;48.080;11.960;2023-04-24T02:43:32;1.10;;;0.30;;
23362;SDS011;11853;48.080;11.960;2023-04-24T02:45:58;0.45;;;0.40;;
23362;SDS011;11853;48.080;11.960;2023-04-24T02:48:24;0.70;;;0.70;;
23362;SDS011;11853;48.080;11.960;2023-04-24T02:50:50;0.57;;;0.57;;
23362;SDS011;11853;48.080;11.960;2023-04-24T02:53:16;1.77;;;0.40;;
23362;SDS011;11853;48.080;11.960;2023-04-24T02:55:42;0.60;;;0.47;;
23362;SDS011;11853;48.080;11.960;2023-04-24T02:58:07;0.20;;;0.20;;
23362;SDS011;11853;48.080;11.960;2023-04-24T03:00:33;0.63;;;0.40;;
23362;SDS011;11853;48.080;11.960;2023-04-24T03:02:59;1.05;;;0.30;;
23362;SDS011;11853;48.080;11.960;2023-04-24T03:05:24;0.52;;;0.40;;
23362;SDS011;11853;48.080;11.960;2023-04-24T03:07:50;0.20;;;0.20;;
23362;SDS011;11853;48.080;11.960;2023-04-24T03:10:17;0.40;;;0.40;;
23362;SDS011;11853;48.080;11.960;2023-04-24T03:12:43;0.32;;;0.32;;
23362;SDS011;11853;48.080;11.960;2023-04-24T03:15:09;0.50;;;0.50;;
23362;SDS011;11853;48.080;11.960;2023-04-24T03:17:40;0.30;;;0.30;;
23362;SDS011;11853;48.080;11.960;2023-04-24T03:20:06;0.40;;;0.40;;
23362;SDS011;11853;48.080;11.960;2023-04-24T03:22:35;0.93;;;0.30;;
23362;SDS011;11853;48.080;11.960;2023-04-24T03:25:01;0.32;;;0.32;;
23362;SDS011;11853;48.080;11.960;2023-04-24T03:27:27;1.38;;;0.40;;
23362;SDS011;11853;48.080;11.960;2023-04-24T03:29:52;1.52;;;0.30;;
23362;SDS011;11853;48.080;11.960;2023-04-24T03:35:32;0.30;;;0.30;;
23362;SDS011;11853;48.080;11.960;2023-04-24T03:37:57;0.40;;;0.40;;
23362;SDS011;11853;48.080;11.960;2023-04-24T03:40:23;0.68;;;0.50;;
23362;SDS011;11853;48.080;11.960;2023-04-24T03:42:48;0.50;;;0.47;;
23362;SDS011;11853;48.080;11.960;2023-04-24T03:45:14;1.55;;;0.50;;
23362;SDS011;11853;48.080;11.960;2023-04-24T03:47:40;1.15;;;0.50;;
23362;SDS011;11853;48.080;11.960;2023-04-24T03:50:05;0.50;;;0.50;;
23362;SDS011;11853;48.080;11.960;2023-04-24T03:52:31;0.32;;;0.32;;
23362;SDS011;11853;48.080;11.960;2023-04-24T03:54:56;0.25;;;0.20;;
23362;SDS011;11853;48.080;11.960;2023-04-24T03:57:22;0.43;;;0.30;;
23362;SDS011;11853;48.080;11.960;2023-04-24T03:59:47;0.60;;;0.60;;
23362;SDS011;11853;48.080;11.960;2023-04-24T04:02:13;0.50;;;0.40;;
23362;SDS011;11853;48.080;11.960;2023-04-24T04:04:38;0.40;;;0.40;;
23362;SDS011;11853;48.080;11.960;2023-04-24T04:07:04;1.70;;;0.52;;
23362;SDS011;11853;48.080;11.960;2023-04-24T04:09:30;0.32;;;0.30;;
23362;SDS011;11853;48.080;11.960;2023-04-24T04:11:56;0.65;;;0.47;;
23362;SDS011;11853;48.080;11.960;2023-04-24T04:14:22;0.43;;;0.43;;
23362;SDS011;11853;48.080;11.960;2023-04-24T04:16:48;0.63;;;0.45;;
23362;SDS011;11853;48.080;11.960;2023-04-24T04:19:14;0.65;;;0.60;;
23362;SDS011;11853;48.080;11.960;2023-04-24T04:21:39;0.77;;;0.50;;
23362;SDS011;11853;48.080;11.960;2023-04-24T04:24:05;0.40;;;0.40;;
23362;SDS011;11853;48.080;11.960;2023-04-24T04:26:32;0.45;;;0.40;;
23362;SDS011;11853;48.080;11.960;2023-04-24T04:28:58;0.50;;;0.50;;
23362;SDS011;11853;48.080;11.960;2023-04-24T04:31:25;0.70;;;0.50;;
23362;SDS011;11853;48.080;11.960;2023-04-24T04:33:51;1.00;;;0.60;;
23362;SDS011;11853;48.080;11.960;2023-04-24T04:36:16;0.50;;;0.50;;
23362;SDS011;11853;48.080;11.960;2023-04-24T04:38:42;0.30;;;0.30;;
23362;SDS011;11853;48.080;11.960;2023-04-24T04:41:09;1.48;;;0.43;;
23362;SDS011;11853;48.080;11.960;2023-04-24T04:43:35;1.02;;;0.50;;
23362;SDS011;11853;48.080;11.960;2023-04-24T04:46:01;0.65;;;0.40;;
23362;SDS011;11853;48.080;11.960;2023-04-24T04:48:28;0.50;;;0.40;;
23362;SDS011;11853;48.080;11.960;2023-04-24T04:50:53;0.50;;;0.50;;
23362;SDS011;11853;48.080;11.960;2023-04-24T04:53:21;0.60;;;0.50;;
23362;SDS011;11853;48.080;11.960;2023-04-24T04:55:47;1.40;;;0.57;;
23362;SDS011;11853;48.080;11.960;2023-04-24T04:58:12;1.27;;;0.50;;
23362;SDS011;11853;48.080;11.960;2023-04-24T05:00:38;2.03;;;0.77;;
23362;SDS011;11853;48.080;11.960;2023-04-24T05:03:04;1.60;;;0.80;;
23362;SDS011;11853;48.080;11.960;2023-04-24T05:05:30;0.60;;;0.60;;
23362;SDS011;11853;48.080;11.960;2023-04-24T05:07:55;0.43;;;0.43;;
23362;SDS011;11853;48.080;11.960;2023-04-24T05:10:21;1.30;;;0.73;;
23362;SDS011;11853;48.080;11.960;2023-04-24T05:12:46;0.80;;;0.80;;
23362;SDS011;11853;48.080;11.960;2023-04-24T05:15:12;0.98;;;0.60;;
23362;SDS011;11853;48.080;11.960;2023-04-24T05:17:38;0.63;;;0.63;;
23362;SDS011;11853;48.080;11.960;2023-04-24T05:20:05;0.55;;;0.52;;
23362;SDS011;11853;48.080;11.960;2023-04-24T05:22:31;0.95;;;0.70;;
23362;SDS011;11853;48.080;11.960;2023-04-24T05:24:57;0.60;;;0.60;;
23362;SDS011;11853;48.080;11.960;2023-04-24T05:27:24;0.70;;;0.60;;
23362;SDS011;11853;48.080;11.960;2023-04-24T05:29:53;1.60;;;0.80;;
23362;SDS011;11853;48.080;11.960;2023-04-24T05:32:19;1.15;;;0.90;;
23362;SDS011;11853;48.080;11.960;2023-04-24T05:34:45;0.82;;;0.70;;
23362;SDS011;11853;48.080;11.960;2023-04-24T05:37:10;1.85;;;0.60;;
23362;SDS011;11853;48.080;11.960;2023-04-24T05:39:36;1.98;;;0.70;;
23362;SDS011;11853;48.080;11.960;2023-04-24T05:42:02;1.83;;;0.73;;
23362;SDS011;11853;48.080;11.960;2023-04-24T05:44:29;1.00;;;0.88;;
23362;SDS011;11853;48.080;11.960;2023-04-24T05:46:55;3.88;;;2.97;;
23362;SDS011;11853;48.080;11.960;2023-04-24T05:49:21;3.28;;;2.97;;
23362;SDS011;11853;48.080;11.960;2023-04-24T05:51:46;2.80;;;2.60;;
23362;SDS011;11853;48.080;11.960;2023-04-24T05:54:11;1.05;;;1.02;;
23362;SDS011;11853;48.080;11.960;2023-04-24T05:56:37;1.10;;;1.02;;
23362;SDS011;11853;48.080;11.960;2023-04-24T05:59:03;1.42;;;1.10;;
23362;SDS011;11853;48.080;11.960;2023-04-24T06:01:29;1.10;;;1.10;;
23362;SDS011;11853;48.080;11.960;2023-04-24T06:03:54;1.13;;;1.02;;
23362;SDS011;11853;48.080;11.960;2023-04-24T06:06:20;3.47;;;2.97;;
23362;SDS011;11853;48.080;11.960;2023-04-24T06:08:46;1.88;;;1.70;;
23362;SDS011;11853;48.080;11.960;2023-04-24T06:11:11;0.68;;;0.68;;
23362;SDS011;11853;48.080;11.960;2023-04-24T06:13:37;0.93;;;0.80;;
23362;SDS011;11853;48.080;11.960;2023-04-24T06:16:02;0.98;;;0.90;;
23362;SDS011;11853;48.080;11.960;2023-04-24T06:18:29;1.25;;;1.00;;
23362;SDS011;11853;48.080;11.960;2023-04-24T06:20:54;1.35;;;1.00;;
23362;SDS011;11853;48.080;11.960;2023-04-24T06:23:20;1.42;;;1.02;;
23362;SDS011;11853;48.080;11.960;2023-04-24T06:25:46;1.90;;;1.63;;
23362;SDS011;11853;48.080;11.960;2023-04-24T06:28:12;2.42;;;2.20;;
23362;SDS011;11853;48.080;11.960;2023-04-24T06:30:37;1.90;;;1.60;;
23362;SDS011;11853;48.080;11.960;2023-04-24T06:33:03;1.00;;;1.00;;
23362;SDS011;11853;48.080;11.960;2023-04-24T06:35:28;0.90;;;0.90;;
23362;SDS011;11853;48.080;11.960;2023-04-24T06:37:54;0.88;;;0.70;;
23362;SDS011;11853;48.080;11.960;2023-04-24T06:40:21;4.22;;;0.60;;
23362;SDS011;11853;48.080;11.960;2023-04-24T06:42:47;1.77;;;0.60;;
23362;SDS011;11853;48.080;11.960;2023-04-24T06:45:12;0.82;;;0.32;;
23362;SDS011;11853;48.080;11.960;2023-04-24T06:47:38;0.30;;;0.30;;
23362;SDS011;11853;48.080;11.960;2023-04-24T06:50:03;0.43;;;0.43;;
23362;SDS011;11853;48.080;11.960;2023-04-24T06:52:30;0.93;;;0.50;;
23362;SDS011;11853;48.080;11.960;2023-04-24T06:55:01;0.30;;;0.30;;
23362;SDS011;11853;48.080;11.960;2023-04-24T06:57:28;1.60;;;0.22;;
23362;SDS011;11853;48.080;11.960;2023-04-24T06:59:54;1.40;;;0.40;;
23362;SDS011;11853;48.080;11.960;2023-04-24T07:02:20;1.75;;;0.50;;
23362;SDS011;11853;48.080;11.960;2023-04-24T07:04:46;0.40;;;0.40;;
23362;SDS011;11853;48.080;11.960;2023-04-24T07:07:12;0.20;;;0.20;;
23362;SDS011;11853;48.080;11.960;2023-04-24T07:09:39;0.28;;;0.28;;
23362;SDS011;11853;48.080;11.960;2023-04-24T07:12:07;0.30;;;0.30;;
23362;SDS011;11853;48.080;11.960;2023-04-24T07:14:33;0.70;;;0.30;;
23362;SDS011;11853;48.080;11.960;2023-04-24T07:16:59;0.57;;;0.25;;
23362;SDS011;11853;48.080;11.960;2023-04-24T07:19:26;2.15;;;0.20;;
23362;SDS011;11853;48.080;11.960;2023-04-24T07:21:51;0.30;;;0.30;;
23362;SDS011;11853;48.080;11.960;2023-04-24T07:24:18;0.22;;;0.22;;
23362;SDS011;11853;48.080;11.960;2023-04-24T07:26:44;0.20;;;0.20;;
23362;SDS011;11853;48.080;11.960;2023-04-24T07:29:11;1.08;;;0.30;;
23362;SDS011;11853;48.080;11.960;2023-04-24T07:31:37;0.57;;;0.40;;
23362;SDS011;11853;48.080;11.960;2023-04-24T07:34:03;0.30;;;0.30;;
23362;SDS011;11853;48.080;11.960;2023-04-24T07:36:28;0.30;;;0.30;;
23362;SDS011;11853;48.080;11.960;2023-04-24T07:38:54;0.30;;;0.30;;
23362;SDS011;11853;48.080;11.960;2023-04-24T07:41:20;0.60;;;0.40;;
23362;SDS011;11853;48.080;11.960;2023-04-24T07:43:46;0.38;;;0.38;;
23362;SDS011;11853;48.080;11.960;2023-04-24T07:46:12;0.22;;;0.20;;
23362;SDS011;11853;48.080;11.960;2023-04-24T07:48:37;0.90;;;0.85;;
23362;SDS011;11853;48.080;11.960;2023-04-24T07:51:03;0.88;;;0.38;;
23362;SDS011;11853;48.080;11.960;2023-04-24T07:53:28;0.40;;;0.38;;
23362;SDS011;11853;48.080;11.960;2023-04-24T07:55:57;0.73;;;0.60;;
23362;SDS011;11853;48.080;11.960;2023-04-24T07:58:22;0.20;;;0.20;;
23362;SDS011;11853;48.080;11.960;2023-04-24T08:00:48;0.73;;;0.40;;
23362;SDS011;11853;48.080;11.960;2023-04-24T08:03:14;0.60;;;0.20;;
23362;SDS011;11853;48.080;11.960;2023-04-24T08:05:43;0.47;;;0.30;;
23362;SDS011;11853;48.080;11.960;2023-04-24T08:08:09;0.30;;;0.30;;
23362;SDS011;11853;48.080;11.960;2023-04-24T08:10:34;0.20;;;0.20;;
23362;SDS011;11853;48.080;11.960;2023-04-24T08:13:00;0.38;;;0.30;;
23362;SDS011;11853;48.080;11.960;2023-04-24T08:15:27;0.43;;;0.35;;
23362;SDS011;11853;48.080;11.960;2023-04-24T08:17:52;0.40;;;0.40;;
23362;SDS011;11853;48.080;11.960;2023-04-24T08:20:18;0.40;;;0.28;;
23362;SDS011;11853;48.080;11.960;2023-04-24T08:22:43;0.75;;;0.32;;
23362;SDS011;11853;48.080;11.960;2023-04-24T08:25:12;0.30;;;0.30;;
23362;SDS011;11853;48.080;11.960;2023-04-24T08:27:38;0.77;;;0.50;;
23362;SDS011;11853;48.080;11.960;2023-04-24T08:30:04;0.40;;;0.40;;
23362;SDS011;11853;48.080;11.960;2023-04-24T08:32:30;0.50;;;0.30;;
23362;SDS011;11853;48.080;11.960;2023-04-24T08:34:56;1.10;;;0.40;;
23362;SDS011;11853;48.080;11.960;2023-04-24T08:37:22;1.00;;;0.30;;
23362;SDS011;11853;48.080;11.960;2023-04-24T08:39:49;0.40;;;0.32;;
23362;SDS011;11853;48.080;11.960;2023-04-24T08:42:15;1.50;;;0.20;;
23362;SDS011;11853;48.080;11.960;2023-04-24T08:44:43;1.50;;;0.30;;
23362;SDS011;11853;48.080;11.960;2023-04-24T08:47:09;0.70;;;0.40;;
23362;SDS011;11853;48.080;11.960;2023-04-24T08:49:36;0.30;;;0.30;;
23362;SDS011;11853;48.080;11.960;2023-04-24T08:52:03;0.32;;;0.30;;
23362;SDS011;11853;48.080;11.960;2023-04-24T08:54:30;0.30;;;0.30;;
23362;SDS011;11853;48.080;11.960;2023-04-24T08:57:00;0.32;;;0.32;;
23362;SDS011;11853;48.080;11.960;2023-04-24T08:59:30;0.57;;;0.40;;
23362;SDS011;11853;48.080;11.960;2023-04-24T09:01:56;0.20;;;0.20;;
23362;SDS011;11853;48.080;11.960;2023-04-24T09:04:23;1.42;;;0.50;;
23362;SDS011;11853;48.080;11.960;2023-04-24T09:06:56;0.75;;;0.40;;
23362;SDS011;11853;48.080;11.960;2023-04-24T09:09:25;0.30;;;0.30;;
23362;SDS011;11853;48.080;11.960;2023-04-24T09:11:54;0.43;;;0.43;;
23362;SDS011;11853;48.080;11.960;2023-04-24T09:14:20;0.22;;;0.22;;
23362;SDS011;11853;48.080;11.960;2023-04-24T09:16:48;0.20;;;0.20;;
23362;SDS011;11853;48.080;11.960;2023-04-24T09:19:14;0.52;;;0.30;;
23362;SDS011;11853;48.080;11.960;2023-04-24T09:21:39;0.65;;;0.38;;
23362;SDS011;11853;48.080;11.960;2023-04-24T09:24:07;0.50;;;0.50;;
23362;SDS011;11853;48.080;11.960;2023-04-24T09:26:42;1.20;;;0.75;;
23362;SDS011;11853;48.080;11.960;2023-04-24T09:29:13;1.20;;;0.60;;
23362;SDS011;11853;48.080;11.960;2023-04-24T09:31:42;0.80;;;0.80;;
23362;SDS011;11853;48.080;11.960;2023-04-24T09:34:09;1.83;;;0.90;;
23362;SDS011;11853;48.080;11.960;2023-04-24T09:36:36;2.60;;;0.80;;
23362;SDS011;11853;48.080;11.960;2023-04-24T09:39:07;1.70;;;0.80;;
23362;SDS011;11853;48.080;11.960;2023-04-24T09:41:35;1.77;;;0.90;;
23362;SDS011;11853;48.080;11.960;2023-04-24T09:44:13;1.05;;;0.90;;
23362;SDS011;11853;48.080;11.960;2023-04-24T09:46:39;2.08;;;1.00;;
23362;SDS011;11853;48.080;11.960;2023-04-24T09:49:09;1.02;;;0.93;;
23362;SDS011;11853;48.080;11.960;2023-04-24T09:51:38;2.42;;;1.13;;
23362;SDS011;11853;48.080;11.960;2023-04-24T09:54:11;1.55;;;1.30;;
23362;SDS011;11853;48.080;11.960;2023-04-24T09:56:42;1.20;;;0.80;;
23362;SDS011;11853;48.080;11.960;2023-04-24T09:59:09;0.70;;;0.70;;
23362;SDS011;11853;48.080;11.960;2023-04-24T10:01:35;1.63;;;1.52;;
23362;SDS011;11853;48.080;11.960;2023-04-24T10:04:03;2.65;;;2.30;;
23362;SDS011;11853;48.080;11.960;2023-04-24T10:06:33;1.08;;;0.90;;
23362;SDS011;11853;48.080;11.960;2023-04-24T10:09:00;3.50;;;0.98;;
23362;SDS011;11853;48.080;11.960;2023-04-24T10:11:28;0.80;;;0.70;;
23362;SDS011;11853;48.080;11.960;2023-04-24T10:13:55;0.82;;;0.82;;
23362;SDS011;11853;48.080;11.960;2023-04-24T10:16:22;0.80;;;0.80;;
23362;SDS011;11853;48.080;11.960;2023-04-24T10:18:48;1.42;;;0.88;;
23362;SDS011;11853;48.080;11.960;2023-04-24T10:21:14;1.40;;;1.08;;
23362;SDS011;11853;48.080;11.960;2023-04-24T10:23:41;2.80;;;1.10;;
23362;SDS011;11853;48.080;11.960;2023-04-24T10:26:08;1.17;;;0.90;;
23362;SDS011;11853;48.080;11.960;2023-04-24T10:28:35;0.90;;;0.90;;
23362;SDS011;11853;48.080;11.960;2023-04-24T10:31:02;1.95;;;1.13;;
23362;SDS011;11853;48.080;11.960;2023-04-24T10:33:29;0.95;;;0.95;;
23362;SDS011;11853;48.080;11.960;2023-04-24T10:35:55;0.70;;;0.70;;
23362;SDS011;11853;48.080;11.960;2023-04-24T10:38:24;1.10;;;1.00;;
23362;SDS011;11853;48.080;11.960;2023-04-24T10:40:51;1.15;;;1.05;;
23362;SDS011;11853;48.080;11.960;2023-04-24T10:43:31;0.98;;;0.98;;
23362;SDS011;11853;48.080;11.960;2023-04-24T10:46:02;1.42;;;1.17;;
23362;SDS011;11853;48.080;11.960;2023-04-24T10:48:30;0.73;;;0.73;;
23362;SDS011;11853;48.080;11.960;2023-04-24T10:50:57;2.13;;;0.80;;
23362;SDS011;11853;48.080;11.960;2023-04-24T10:53:23;1.17;;;0.93;;
23362;SDS011;11853;48.080;11.960;2023-04-24T10:55:57;1.63;;;0.88;;
23362;SDS011;11853;48.080;11.960;2023-04-24T11:03:58;1.40;;;1.30;;
23362;SDS011;11853;48.080;11.960;2023-04-24T11:08:59;1.13;;;1.00;;
23362;SDS011;11853;48.080;11.960;2023-04-24T11:11:31;1.00;;;0.98;;
23362;SDS011;11853;48.080;11.960;2023-04-24T11:16:28;1.05;;;0.95;;
23362;SDS011;11853;48.080;11.960;2023-04-24T11:19:02;1.25;;;1.15;;
23362;SDS011;11853;48.080;11.960;2023-04-24T11:24:22;1.45;;;1.35;;
23362;SDS011;11853;48.080;11.960;2023-04-24T11:27:05;1.58;;;1.20;;
23362;SDS011;11853;48.080;11.960;2023-04-24T11:32:24;1.95;;;1.30;;
23362;SDS011;11853;48.080;11.960;2023-04-24T11:34:54;0.57;;;0.57;;
23362;SDS011;11853;48.080;11.960;2023-04-24T11:37:21;1.45;;;0.82;;
23362;SDS011;11853;48.080;11.960;2023-04-24T11:39:50;1.85;;;0.73;;
23362;SDS011;11853;48.080;11.960;2023-04-24T11:42:16;1.63;;;1.05;;
23362;SDS011;11853;48.080;11.960;2023-04-24T11:44:43;1.20;;;1.10;;
23362;SDS011;11853;48.080;11.960;2023-04-24T11:47:08;0.95;;;0.82;;
23362;SDS011;11853;48.080;11.960;2023-04-24T11:49:37;0.80;;;0.80;;
23362;SDS011;11853;48.080;11.960;2023-04-24T11:52:03;2.10;;;0.88;;
23362;SDS011;11853;48.080;11.960;2023-04-24T11:54:29;0.90;;;0.90;;
23362;SDS011;11853;48.080;11.960;2023-04-24T11:56:55;1.83;;;1.20;;
23362;SDS011;11853;48.080;11.960;2023-04-24T11:59:22;0.80;;;0.80;;
23362;SDS011;11853;48.080;11.960;2023-04-24T12:01:47;1.67;;;1.40;;
23362;SDS011;11853;48.080;11.960;2023-04-24T12:04:14;3.55;;;1.60;;
23362;SDS011;11853;48.080;11.960;2023-04-24T12:07:01;2.22;;;1.02;;
23362;SDS011;11853;48.080;11.960;2023-04-24T12:09:27;1.20;;;1.10;;
23362;SDS011;11853;48.080;11.960;2023-04-24T12:11:56;1.95;;;1.23;;
23362;SDS011;11853;48.080;11.960;2023-04-24T12:14:22;1.33;;;1.23;;
23362;SDS011;11853;48.080;11.960;2023-04-24T12:16:48;1.83;;;1.42;;
23362;SDS011;11853;48.080;11.960;2023-04-24T12:19:20;1.75;;;1.23;;
23362;SDS011;11853;48.080;11.960;2023-04-24T12:21:58;3.42;;;1.10;;
23362;SDS011;11853;48.080;11.960;2023-04-24T12:24:24;2.97;;;1.17;;
23362;SDS011;11853;48.080;11.960;2023-04-24T12:26:50;2.30;;;1.05;;
23362;SDS011;11853;48.080;11.960;2023-04-24T12:29:22;1.35;;;1.17;;
23362;SDS011;11853;48.080;11.960;2023-04-24T12:31:47;0.98;;;0.98;;
23362;SDS011;11853;48.080;11.960;2023-04-24T12:34:20;0.98;;;0.98;;
23362;SDS011;11853;48.080;11.960;2023-04-24T12:36:47;0.90;;;0.90;;
23362;SDS011;11853;48.080;11.960;2023-04-24T12:39:19;3.70;;;1.30;;
23362;SDS011;11853;48.080;11.960;2023-04-24T12:41:50;1.52;;;1.42;;
23362;SDS011;11853;48.080;11.960;2023-04-24T12:44:32;1.52;;;1.42;;
23362;SDS011;11853;48.080;11.960;2023-04-24T12:47:00;1.73;;;1.27;;
23362;SDS011;11853;48.080;11.960;2023-04-24T12:49:26;1.70;;;1.35;;
23362;SDS011;11853;48.080;11.960;2023-04-24T12:51:52;2.58;;;1.60;;
23362;SDS011;11853;48.080;11.960;2023-04-24T12:54:18;2.33;;;1.10;;
23362;SDS011;11853;48.080;11.960;2023-04-24T12:56:44;1.63;;;1.52;;
23362;SDS011;11853;48.080;11.960;2023-04-24T12:59:10;1.63;;;1.20;;
23362;SDS011;11853;48.080;11.960;2023-04-24T13:01:35;1.25;;;1.15;;
23362;SDS011;11853;48.080;11.960;2023-04-24T13:04:01;0.93;;;0.90;;
23362;SDS011;11853;48.080;11.960;2023-04-24T13:06:26;1.20;;;1.10;;
23362;SDS011;11853;48.080;11.960;2023-04-24T13:08:52;1.25;;;1.00;;
23362;SDS011;11853;48.080;11.960;2023-04-24T13:11:19;1.60;;;1.50;;
23362;SDS011;11853;48.080;11.960;2023-04-24T13:13:46;2.05;;;1.25;;
23362;SDS011;11853;48.080;11.960;2023-04-24T13:16:12;2.05;;;1.60;;
23362;SDS011;11853;48.080;11.960;2023-04-24T13:18:37;1.25;;;1.08;;
23362;SDS011;11853;48.080;11.960;2023-04-24T13:21:03;1.25;;;1.15;;
23362;SDS011;11853;48.080;11.960;2023-04-24T13:23:28;1.10;;;1.10;;
23362;SDS011;11853;48.080;11.960;2023-04-24T13:25:54;1.52;;;1.00;;
23362;SDS011;11853;48.080;11.960;2023-04-24T13:28:22;1.20;;;1.20;;
23362;SDS011;11853;48.080;11.960;2023-04-24T13:30:48;1.95;;;1.48;;
23362;SDS011;11853;48.080;11.960;2023-04-24T13:33:14;1.55;;;1.45;;
23362;SDS011;11853;48.080;11.960;2023-04-24T13:35:39;1.92;;;1.30;;
23362;SDS011;11853;48.080;11.960;2023-04-24T13:38:05;2.35;;;1.20;;
23362;SDS011;11853;48.080;11.960;2023-04-24T13:40:31;2.03;;;1.50;;
23362;SDS011;11853;48.080;11.960;2023-04-24T13:42:58;2.80;;;1.80;;
23362;SDS011;11853;48.080;11.960;2023-04-24T13:45:23;2.88;;;2.58;;
23362;SDS011;11853;48.080;11.960;2023-04-24T13:47:49;1.55;;;1.38;;
23362;SDS011;11853;48.080;11.960;2023-04-24T13:50:14;1.80;;;1.17;;
23362;SDS011;11853;48.080;11.960;2023-04-24T13:52:40;1.73;;;1.40;;
23362;SDS011;11853;48.080;11.960;2023-04-24T13:55:06;1.40;;;1.27;;
23362;SDS011;11853;48.080;11.960;2023-04-24T13:57:32;1.48;;;1.33;;
23362;SDS011;11853;48.080;11.960;2023-04-24T13:59:57;6.35;;;1.40;;
23362;SDS011;11853;48.080;11.960;2023-04-24T14:02:26;2.75;;;1.70;;
23362;SDS011;11853;48.080;11.960;2023-04-24T14:04:52;1.45;;;1.35;;
23362;SDS011;11853;48.080;11.960;2023-04-24T14:07:18;2.10;;;1.30;;
23362;SDS011;11853;48.080;11.960;2023-04-24T14:09:43;1.30;;;1.25;;
23362;SDS011;11853;48.080;11.960;2023-04-24T14:12:09;1.65;;;1.55;;
23362;SDS011;11853;48.080;11.960;2023-04-24T14:14:34;1.33;;;1.23;;
23362;SDS011;11853;48.080;11.960;2023-04-24T14:17:00;2.25;;;1.38;;
23362;SDS011;11853;48.080;11.960;2023-04-24T14:19:26;1.77;;;1.30;;
23362;SDS011;11853;48.080;11.960;2023-04-24T14:21:51;3.35;;;1.83;;
23362;SDS011;11853;48.080;11.960;2023-04-24T14:24:17;1.75;;;1.63;;
23362;SDS011;11853;48.080;11.960;2023-04-24T14:26:42;1.63;;;1.40;;
23362;SDS011;11853;48.080;11.960;2023-04-24T14:29:08;4.40;;;1.73;;
23362;SDS011;11853;48.080;11.960;2023-04-24T14:31:34;1.88;;;1.60;;
23362;SDS011;11853;48.080;11.960;2023-04-24T14:33:59;1.50;;;1.40;;
23362;SDS011;11853;48.080;11.960;2023-04-24T14:36:25;2.60;;;1.42;;
23362;SDS011;11853;48.080;11.960;2023-04-24T14:38:50;2.75;;;1.50;;
23362;SDS011;11853;48.080;11.960;2023-04-24T14:41:16;1.55;;;1.45;;
23362;SDS011;11853;48.080;11.960;2023-04-24T14:43:41;1.50;;;1.40;;
23362;SDS011;11853;48.080;11.960;2023-04-24T14:46:07;2.50;;;1.80;;
23362;SDS011;11853;48.080;11.960;2023-04-24T14:48:33;1.95;;;1.42;;